Time;durP1;ratioP1;P1;durP2;ratioP2;P2;SDS_P1;SDS_P2;PMS_P1;PMS_P2;Temp;Humidity;BMP_temperature;BMP_pressure;BME280_temperature;BME280_humidity;BME280_pressure;Samples;Min_cycle;Max_cycle;Signal;HPM_P1;HPM_P2
2022/12/24 00:00:05;;;;;;;2.90;1.50;;;;;;;6.68;100.00;93503.41;4993174;28;20073;-64
2022/12/24 00:02:32;;;;;;;4.15;1.70;;;;;;;6.64;100.00;93508.13;4992715;28;20384;-64
2022/12/24 00:04:59;;;;;;;2.73;1.60;;;;;;;6.46;100.00;93513.69;4993423;28;20046;-64
2022/12/24 00:07:28;;;;;;;4.63;1.85;;;;;;;6.45;100.00;93533.16;4993398;28;20054;-64
2022/12/24 00:09:55;;;;;;;2.95;1.42;;;;;;;6.31;100.00;93537.50;4993190;28;20054;-64
2022/12/24 00:12:22;;;;;;;3.65;1.40;;;;;;;6.20;100.00;93542.25;4993636;28;20076;-64
2022/12/24 00:14:49;;;;;;;4.18;1.63;;;;;;;6.21;100.00;93538.34;4992842;28;20089;-64
2022/12/24 00:17:16;;;;;;;4.23;1.30;;;;;;;5.98;100.00;93531.44;4993287;28;20054;-64
2022/12/24 00:19:43;;;;;;;4.00;1.30;;;;;;;5.97;100.00;93535.31;4992847;28;20077;-64
2022/12/24 00:22:09;;;;;;;5.10;1.65;;;;;;;6.00;100.00;93553.63;4992836;28;20046;-64
2022/12/24 00:24:36;;;;;;;4.47;1.20;;;;;;;5.99;100.00;93543.09;4992718;28;20049;-64
2022/12/24 00:27:04;;;;;;;7.53;2.17;;;;;;;5.96;100.00;93554.81;4993003;28;20048;-64
2022/12/24 00:29:32;;;;;;;3.03;1.53;;;;;;;5.88;100.00;93559.47;4992875;28;20050;-64
2022/12/24 00:31:59;;;;;;;5.68;2.15;;;;;;;5.90;100.00;93554.41;4992742;28;20434;-64
2022/12/24 00:34:26;;;;;;;6.20;2.05;;;;;;;5.85;100.00;93556.75;4993281;28;20100;-65
2022/12/24 00:36:52;;;;;;;6.32;2.72;;;;;;;5.80;100.00;93547.03;4992341;28;21656;-64
2022/12/24 00:39:19;;;;;;;6.97;2.97;;;;;;;5.70;100.00;93554.06;4992869;28;20049;-64
2022/12/24 00:41:46;;;;;;;4.83;1.93;;;;;;;5.72;100.00;93550.97;4992661;28;20096;-64
2022/12/24 00:44:12;;;;;;;5.85;2.28;;;;;;;5.71;100.00;93549.41;4992598;28;20479;-64
2022/12/24 00:46:40;;;;;;;5.75;2.53;;;;;;;5.69;100.00;93551.75;4992374;28;20050;-64
2022/12/24 00:49:08;;;;;;;5.78;2.30;;;;;;;5.64;100.00;93558.38;4992729;28;20043;-64
2022/12/24 00:51:35;;;;;;;5.20;1.88;;;;;;;5.58;100.00;93552.53;4992315;28;20054;-64
2022/12/24 00:54:02;;;;;;;6.83;1.60;;;;;;;5.58;100.00;93566.16;4992502;28;20096;-64
2022/12/24 00:56:29;;;;;;;8.70;3.33;;;;;;;5.58;100.00;93568.88;4992245;28;20038;-64
2022/12/24 00:58:56;;;;;;;5.28;2.13;;;;;;;5.70;100.00;93575.09;4992814;28;20038;-64
2022/12/24 01:01:23;;;;;;;4.97;1.40;;;;;;;5.62;100.00;93582.47;4992520;28;20072;-64
2022/12/24 01:03:51;;;;;;;3.55;1.73;;;;;;;5.64;100.00;93579.38;4992102;28;20100;-64
2022/12/24 01:06:20;;;;;;;4.83;1.60;;;;;;;5.72;100.00;93578.97;4992346;28;20051;-64
2022/12/24 01:08:50;;;;;;;3.30;1.38;;;;;;;5.78;100.00;93593.72;4992071;28;20537;-64
2022/12/24 01:11:17;;;;;;;4.40;1.30;;;;;;;5.70;100.00;93600.34;4990158;28;20039;-64
2022/12/24 01:13:44;;;;;;;7.15;1.15;;;;;;;5.65;100.00;93602.69;4992299;28;20069;-64
2022/12/24 01:16:17;;;;;;;4.85;1.30;;;;;;;5.73;100.00;93605.00;4993169;28;20072;-64
2022/12/24 01:18:44;;;;;;;6.73;1.37;;;;;;;5.73;100.00;93601.50;4990568;28;20048;-64
2022/12/24 01:21:11;;;;;;;21.83;7.25;;;;;;;5.67;100.00;93616.69;4991609;28;20058;-64
2022/12/24 01:23:38;;;;;;;23.60;8.57;;;;;;;5.66;100.00;93620.59;4991533;28;20051;-64
2022/12/24 01:26:05;;;;;;;8.77;3.08;;;;;;;5.54;100.00;93619.06;4991367;28;20093;-64
2022/12/24 01:28:32;;;;;;;6.55;2.00;;;;;;;5.73;100.00;93617.84;4991607;28;20059;-63
2022/12/24 01:30:59;;;;;;;14.97;5.10;;;;;;;5.75;100.00;93624.44;4991801;28;20487;-64
2022/12/24 01:33:29;;;;;;;9.45;3.60;;;;;;;5.79;100.00;93624.44;4991676;28;20475;-64
2022/12/24 01:35:55;;;;;;;6.47;2.33;;;;;;;5.72;100.00;93624.47;4991062;28;20858;-64
2022/12/24 01:38:22;;;;;;;10.55;4.18;;;;;;;5.62;100.00;93615.16;4991607;28;20069;-64
2022/12/24 01:43:34;;;;;;;3.87;1.50;;;;;;;5.58;100.00;93617.09;4991300;28;20057;-64
2022/12/24 01:46:06;;;;;;;10.23;3.80;;;;;;;5.52;100.00;93621.38;4991258;28;20042;-64
2022/12/24 01:48:40;;;;;;;9.00;1.92;;;;;;;5.66;100.00;93617.88;4991287;28;20054;-64
2022/12/24 01:51:22;;;;;;;6.47;2.03;;;;;;;5.70;100.00;93627.59;4991155;28;20050;-64
2022/12/24 01:54:04;;;;;;;7.95;2.75;;;;;;;5.65;100.00;93640.81;4991272;28;20043;-64
2022/12/24 01:56:31;;;;;;;6.03;1.87;;;;;;;5.78;100.00;93637.28;4990878;28;20049;-64
2022/12/24 01:59:06;;;;;;;3.55;1.73;;;;;;;5.76;100.00;93634.19;4990990;28;20043;-64
2022/12/24 02:01:33;;;;;;;7.50;2.85;;;;;;;5.71;100.00;93628.34;5005370;28;20050;-64
2022/12/24 02:04:11;;;;;;;7.13;2.60;;;;;;;5.66;100.00;93632.25;4989527;28;20064;-64
2022/12/24 02:06:37;;;;;;;6.97;2.33;;;;;;;5.65;100.00;93621.75;4990923;28;20042;-64
2022/12/24 02:09:06;;;;;;;4.73;1.80;;;;;;;5.67;100.00;93627.56;4990806;28;20668;-64
2022/12/24 02:11:36;;;;;;;5.20;2.10;;;;;;;5.64;100.00;93634.59;4988135;28;20069;-64
2022/12/24 02:14:03;;;;;;;5.32;2.25;;;;;;;5.70;100.00;93634.97;4990919;28;20483;-64
2022/12/24 02:17:03;;;;;;;6.57;1.58;;;;;;;6.10;100.00;93643.88;4990622;28;20402;-64
2022/12/24 02:20:07;;;;;;;33.95;14.25;;;;;;;6.17;100.00;93649.28;4990513;28;20043;-64
2022/12/24 02:22:51;;;;;;;6.40;2.40;;;;;;;6.05;100.00;93658.66;4977872;28;20043;-64
2022/12/24 02:25:24;;;;;;;6.78;1.80;;;;;;;5.97;100.00;93640.78;4990618;28;20069;-64
2022/12/24 02:28:12;;;;;;;5.00;1.40;;;;;;;5.82;100.00;93648.19;4990360;28;20080;-64
2022/12/24 02:30:50;;;;;;;5.40;1.38;;;;;;;5.86;100.00;93656.34;4991362;28;20056;-64
2022/12/24 02:33:29;;;;;;;5.80;2.05;;;;;;;5.74;100.00;93657.53;5000770;28;20048;-64
2022/12/24 02:36:05;;;;;;;6.43;2.17;;;;;;;5.74;100.00;93663.75;4989968;28;20645;-64
2022/12/24 02:38:41;;;;;;;8.57;2.58;;;;;;;5.75;100.00;93662.56;4990373;28;20081;-64
2022/12/24 02:41:20;;;;;;;10.05;2.95;;;;;;;5.58;100.00;93660.66;5005248;28;20048;-64
2022/12/24 02:43:50;;;;;;;8.02;2.83;;;;;;;5.65;100.00;93660.63;5002139;28;20080;-64
2022/12/24 02:46:21;;;;;;;5.68;2.25;;;;;;;5.51;100.00;93645.09;4990823;28;20056;-64
2022/12/24 02:48:49;;;;;;;5.03;1.70;;;;;;;5.56;100.00;93646.66;4990069;28;20046;-64
2022/12/24 02:51:23;;;;;;;5.50;1.48;;;;;;;5.50;100.00;93662.59;4990303;28;20039;-64
2022/12/24 02:53:50;;;;;;;7.93;2.20;;;;;;;5.53;100.00;93680.09;4990095;28;20092;-64
2022/12/24 02:56:49;;;;;;;6.38;2.25;;;;;;;5.51;100.00;93682.41;4975514;28;20104;-64
2022/12/24 02:59:42;;;;;;;5.93;2.60;;;;;;;5.46;100.00;93699.16;4989330;28;20042;-64
2022/12/24 03:02:31;;;;;;;4.87;1.93;;;;;;;5.20;100.00;93687.47;4989019;28;20655;-64
2022/12/24 03:05:17;;;;;;;5.68;2.28;;;;;;;4.98;100.00;93683.91;4989920;28;20842;-64
2022/12/24 03:07:50;;;;;;;7.15;3.88;;;;;;;4.92;100.00;93680.78;4990078;28;20046;-64
2022/12/24 03:10:17;;;;;;;6.78;3.00;;;;;;;4.94;100.00;93692.06;4988853;28;20044;-64
2022/12/24 03:12:48;;;;;;;7.38;2.40;;;;;;;5.03;100.00;93686.28;4993118;28;20492;-64
2022/12/24 03:15:19;;;;;;;3.40;1.77;;;;;;;5.10;100.00;93683.56;4993968;28;20116;-64
2022/12/24 03:17:48;;;;;;;5.82;2.40;;;;;;;5.09;100.00;93692.88;4993716;28;20128;-64
2022/12/24 03:20:22;;;;;;;28.77;13.88;;;;;;;4.93;100.00;93709.56;4993864;28;20157;-64
2022/12/24 03:22:49;;;;;;;25.25;10.30;;;;;;;5.02;100.00;93719.28;4993642;28;20098;-64
2022/12/24 03:25:16;;;;;;;5.80;3.65;;;;;;;4.99;100.00;93712.69;4993621;28;20046;-64
2022/12/24 03:27:43;;;;;;;8.10;3.45;;;;;;;4.97;100.00;93710.34;4993790;28;20050;-64
2022/12/24 03:30:12;;;;;;;9.85;3.63;;;;;;;4.96;100.00;93710.72;4993954;28;20115;-64
2022/12/24 03:32:39;;;;;;;5.20;3.03;;;;;;;4.97;100.00;93715.78;4993564;28;20064;-64
2022/12/24 03:35:07;;;;;;;6.38;3.28;;;;;;;4.98;100.00;93719.28;4992609;28;20055;-64
2022/12/24 03:37:34;;;;;;;5.40;3.17;;;;;;;4.90;100.00;93713.03;4993446;28;20046;-64
2022/12/24 03:40:00;;;;;;;5.77;2.73;;;;;;;4.89;100.00;93710.69;4993645;28;20781;-64
2022/12/24 03:42:27;;;;;;;8.88;4.30;;;;;;;4.77;100.00;93712.63;4993037;28;20058;-63
2022/12/24 03:44:54;;;;;;;6.38;2.53;;;;;;;4.76;100.00;93721.91;4993923;28;20048;-64
2022/12/24 03:47:20;;;;;;;6.32;2.60;;;;;;;4.79;100.00;93734.75;4993416;28;20050;-64
2022/12/24 03:49:47;;;;;;;4.88;2.08;;;;;;;4.83;100.00;93732.06;4993141;28;20046;-64
2022/12/24 03:52:14;;;;;;;6.33;2.17;;;;;;;4.86;100.00;93741.38;4993563;28;20054;-64
2022/12/24 03:54:40;;;;;;;5.63;2.70;;;;;;;4.69;100.00;93743.66;4992885;28;20042;-64
2022/12/24 03:57:07;;;;;;;5.13;2.80;;;;;;;4.76;100.00;93749.09;4993397;28;20050;-64
2022/12/24 03:59:34;;;;;;;8.00;2.80;;;;;;;4.79;100.00;93748.34;4993168;28;20041;-64
2022/12/24 04:02:00;;;;;;;7.47;3.17;;;;;;;4.76;100.00;93746.38;4993239;28;20054;-64
2022/12/24 04:04:28;;;;;;;7.43;3.30;;;;;;;4.74;100.00;93739.78;4992704;28;20050;-64
2022/12/24 04:06:54;;;;;;;6.97;2.60;;;;;;;4.75;100.00;93733.19;4993421;28;20112;-64
2022/12/24 04:09:21;;;;;;;5.28;3.58;;;;;;;4.67;100.00;93740.53;5005983;28;20567;-64
2022/12/24 04:11:47;;;;;;;6.00;3.00;;;;;;;4.69;100.00;93727.34;4992906;28;20407;-64
2022/12/24 04:14:14;;;;;;;5.30;3.20;;;;;;;4.60;100.00;93726.91;4992967;28;20046;-64
2022/12/24 04:16:41;;;;;;;5.10;2.40;;;;;;;4.65;100.00;93740.13;4993059;28;20038;-64
2022/12/24 04:19:08;;;;;;;6.32;2.58;;;;;;;4.37;100.00;93736.13;4992940;28;20051;-64
2022/12/24 04:21:34;;;;;;;7.05;2.88;;;;;;;4.47;100.00;93742.78;4992431;28;20054;-64
2022/12/24 04:24:01;;;;;;;5.50;2.80;;;;;;;4.54;100.00;93744.75;4993221;28;20050;-64
2022/12/24 04:26:28;;;;;;;4.68;2.40;;;;;;;4.35;100.00;93745.81;4991937;28;20053;-64
2022/12/24 04:28:54;;;;;;;5.77;2.47;;;;;;;4.53;100.00;93741.25;4992860;28;20542;-64
2022/12/24 04:31:21;;;;;;;13.98;4.85;;;;;;;4.47;100.00;93731.91;5007426;28;20046;-64
2022/12/24 04:33:50;;;;;;;8.00;3.60;;;;;;;4.31;100.00;93748.50;4992409;28;20046;-64
2022/12/24 04:36:18;;;;;;;15.50;6.05;;;;;;;4.23;100.00;93760.50;4992791;28;20049;-64
2022/12/24 04:38:46;;;;;;;14.48;5.85;;;;;;;4.44;100.00;93750.91;4977610;28;20096;-64
2022/12/24 04:41:19;;;;;;;12.20;5.30;;;;;;;4.43;100.00;93760.19;4992483;28;20499;-64
2022/12/24 04:43:53;;;;;;;13.43;5.20;;;;;;;4.44;100.00;93756.34;4978184;28;20034;-64
2022/12/24 04:46:23;;;;;;;7.40;3.85;;;;;;;4.28;100.00;93759.34;4992458;28;20054;-64
2022/12/24 04:48:52;;;;;;;11.07;4.80;;;;;;;4.24;100.00;93762.03;4991975;28;20443;-64
2022/12/24 04:51:19;;;;;;;8.77;5.13;;;;;;;4.36;100.00;93769.09;4992482;28;20050;-64
2022/12/24 04:53:46;;;;;;;9.63;4.87;;;;;;;4.36;100.00;93777.25;4992201;28;20406;-64
2022/12/24 04:56:17;;;;;;;8.30;4.45;;;;;;;4.48;100.00;93785.06;4992273;28;20050;-64
2022/12/24 04:58:44;;;;;;;8.73;3.85;;;;;;;4.45;100.00;93779.63;4992109;28;20592;-64
2022/12/24 05:01:14;;;;;;;9.38;4.20;;;;;;;4.48;100.00;93774.19;4992357;28;20061;-64
2022/12/24 05:03:41;;;;;;;8.57;3.97;;;;;;;4.58;100.00;93781.63;4991595;28;20398;-64
2022/12/24 05:06:11;;;;;;;7.10;3.13;;;;;;;4.66;100.00;93784.41;4992497;28;20594;-64
2022/12/24 05:08:38;;;;;;;7.68;3.38;;;;;;;4.70;100.00;93772.38;4991698;28;20055;-64
2022/12/24 05:11:05;;;;;;;5.65;2.92;;;;;;;4.71;100.00;93779.38;4992074;28;20085;-64
2022/12/24 05:13:32;;;;;;;6.00;2.80;;;;;;;4.63;100.00;93783.22;4991546;28;20050;-64
2022/12/24 05:16:13;;;;;;;10.90;3.65;;;;;;;4.73;100.00;93785.22;4992127;28;20108;-64
2022/12/24 05:18:40;;;;;;;8.03;2.60;;;;;;;4.85;100.00;93780.59;4991669;28;20038;-65
2022/12/24 05:21:13;;;;;;;6.97;2.90;;;;;;;4.67;100.00;93775.88;5006842;28;20042;-64
2022/12/24 05:26:36;;;;;;;11.60;3.88;;;;;;;4.84;100.00;93781.78;4991195;28;20073;-64
2022/12/24 05:29:04;;;;;;;16.30;7.13;;;;;;;4.95;100.00;93771.69;4997211;28;20863;-64
2022/12/24 05:31:32;;;;;;;22.97;8.87;;;;;;;4.91;100.00;93776.34;4997711;28;20880;-64
2022/12/24 05:34:00;;;;;;;14.48;6.05;;;;;;;5.04;100.00;93776.78;4990943;28;20058;-64
2022/12/24 05:36:26;;;;;;;8.77;3.03;;;;;;;5.15;100.00;93770.22;4991500;28;20053;-64
2022/12/24 05:38:53;;;;;;;10.63;4.50;;;;;;;5.22;100.00;93777.63;4982884;28;20903;-64
2022/12/24 05:41:20;;;;;;;8.77;4.20;;;;;;;5.25;100.00;93784.22;5003828;28;20046;-64
2022/12/24 05:43:48;;;;;;;11.27;4.27;;;;;;;5.28;100.00;93784.25;4991020;28;20390;-64
2022/12/24 05:46:20;;;;;;;9.82;5.15;;;;;;;5.28;100.00;93788.91;4991193;28;20056;-64
2022/12/24 05:48:48;;;;;;;9.57;4.32;;;;;;;5.33;100.00;93794.75;5006139;28;20046;-65
2022/12/24 05:51:18;;;;;;;10.18;4.70;;;;;;;5.30;100.00;93797.47;4991397;28;20057;-64
2022/12/24 05:53:46;;;;;;;10.77;3.95;;;;;;;5.35;100.00;93797.09;4991004;28;20064;-64
2022/12/24 05:56:22;;;;;;;12.80;6.17;;;;;;;5.20;100.00;93805.22;4991177;28;20069;-64
2022/12/24 05:58:49;;;;;;;12.27;5.32;;;;;;;5.35;100.00;93805.25;4991789;28;20390;-64
2022/12/24 06:01:16;;;;;;;13.75;5.95;;;;;;;5.34;100.00;93815.34;4994440;28;20039;-64
2022/12/24 06:03:43;;;;;;;9.95;3.88;;;;;;;5.33;100.00;93818.47;4988853;28;20271;-64
2022/12/24 06:06:18;;;;;;;10.90;5.07;;;;;;;5.40;100.00;93802.94;5004030;28;20487;-63
2022/12/24 06:08:45;;;;;;;13.17;5.73;;;;;;;5.45;100.00;93811.88;4990821;28;20116;-64
2022/12/24 06:11:14;;;;;;;11.02;4.25;;;;;;;5.13;100.00;93816.06;4996838;28;20369;-63
2022/12/24 06:13:41;;;;;;;7.50;2.50;;;;;;;5.20;100.00;93821.53;4996875;28;20389;-63
2022/12/24 06:16:13;;;;;;;21.90;7.72;;;;;;;5.19;100.00;93817.28;4991084;28;20061;-64
2022/12/24 06:18:40;;;;;;;86.38;26.55;;;;;;;5.23;100.00;93821.94;4990110;28;20049;-64
2022/12/24 06:21:08;;;;;;;25.47;8.70;;;;;;;5.16;100.00;93809.09;4991027;28;20046;-64
2022/12/24 06:23:37;;;;;;;15.32;6.28;;;;;;;5.23;100.00;93816.47;4990131;28;20050;-63
2022/12/24 06:26:06;;;;;;;6.93;2.42;;;;;;;5.22;100.00;93820.38;4990469;28;20038;-64
2022/12/24 06:28:35;;;;;;;9.20;3.03;;;;;;;5.20;100.00;93824.25;4990038;28;20046;-63
2022/12/24 06:31:04;;;;;;;13.50;6.07;;;;;;;5.21;100.00;93819.59;4990517;28;20050;-64
2022/12/24 06:33:32;;;;;;;49.47;18.87;;;;;;;5.25;100.00;93809.53;4989923;28;20064;-63
2022/12/24 06:35:59;;;;;;;20.10;8.63;;;;;;;5.17;100.00;93813.34;4990483;28;20054;-63
2022/12/24 06:38:25;;;;;;;25.55;9.77;;;;;;;5.19;100.00;93832.78;4990268;28;20068;-63
2022/12/24 06:40:54;;;;;;;23.10;9.25;;;;;;;5.23;100.00;93827.38;4989655;28;20194;-63
2022/12/24 06:43:21;;;;;;;25.17;10.18;;;;;;;5.08;100.00;93830.03;5005557;28;20541;-64
2022/12/24 06:45:48;;;;;;;20.77;7.90;;;;;;;4.97;100.00;93835.44;4989931;28;20046;-64
2022/12/24 06:48:15;;;;;;;15.68;6.60;;;;;;;5.03;100.00;93824.97;5005311;28;20370;-64
2022/12/24 06:50:42;;;;;;;16.08;7.10;;;;;;;5.07;100.00;93814.91;4990235;28;20042;-63
2022/12/24 06:53:09;;;;;;;19.90;9.60;;;;;;;4.99;100.00;93824.97;4990690;28;20042;-63
2022/12/24 06:55:36;;;;;;;15.63;6.03;;;;;;;4.90;100.00;93821.03;4995542;28;20064;-63
2022/12/24 06:58:03;;;;;;;13.87;5.60;;;;;;;4.99;100.00;93816.81;4997316;28;20491;-64
2022/12/24 07:00:30;;;;;;;12.85;2.78;;;;;;;5.15;100.00;93810.22;4989541;28;20042;-63
2022/12/24 07:02:57;;;;;;;13.13;6.90;;;;;;;5.21;100.00;93811.41;4990196;28;20121;-63
2022/12/24 07:05:24;;;;;;;10.07;5.18;;;;;;;5.28;100.00;93818.84;4993267;28;20053;-63
2022/12/24 07:07:51;;;;;;;8.98;3.40;;;;;;;5.24;100.00;93821.56;4999388;28;20050;-63
2022/12/24 07:10:19;;;;;;;8.60;3.20;;;;;;;5.33;100.00;93821.19;4988574;28;20042;-63
2022/12/24 07:12:46;;;;;;;8.80;3.55;;;;;;;5.35;100.00;93824.28;4979587;28;20054;-63
2022/12/24 07:15:14;;;;;;;8.25;3.38;;;;;;;5.38;100.00;93826.25;4990266;28;20060;-63
2022/12/24 07:17:41;;;;;;;6.78;2.38;;;;;;;5.38;100.00;93826.25;5002319;28;20038;-63
2022/12/24 07:20:14;;;;;;;7.28;2.20;;;;;;;5.32;100.00;93835.97;4989989;28;20050;-63
2022/12/24 07:22:41;;;;;;;7.53;2.33;;;;;;;5.31;100.00;93840.63;4989591;28;20537;-64
2022/12/24 07:25:09;;;;;;;11.25;5.00;;;;;;;4.84;100.00;93834.19;4989762;28;20042;-64
2022/12/24 07:27:37;;;;;;;11.02;4.10;;;;;;;5.05;100.00;93832.72;4989409;28;20058;-64
2022/12/24 07:30:04;;;;;;;9.57;3.72;;;;;;;5.10;100.00;93856.84;4989905;28;20430;-63
2022/12/24 07:32:31;;;;;;;14.95;5.70;;;;;;;5.16;100.00;93872.44;4988518;28;20046;-62
2022/12/24 07:34:58;;;;;;;14.10;5.90;;;;;;;5.27;100.00;93853.44;4990055;28;20483;-63
2022/12/24 07:37:25;;;;;;;14.57;5.60;;;;;;;5.20;100.00;93853.41;4989817;28;20121;-63
2022/12/24 07:39:51;;;;;;;14.50;5.72;;;;;;;5.10;100.00;93862.31;4989467;28;20046;-63
2022/12/24 07:42:18;;;;;;;18.15;8.18;;;;;;;5.22;100.00;93858.47;4993416;28;20108;-63
2022/12/24 07:44:45;;;;;;;13.82;5.45;;;;;;;5.31;100.00;93858.88;4989710;28;20097;-63
2022/12/24 07:47:12;;;;;;;16.43;6.57;;;;;;;5.18;100.00;93867.38;5004698;28;20042;-63
2022/12/24 07:49:38;;;;;;;24.17;9.10;;;;;;;5.20;100.00;93867.00;4989373;28;20895;-63
2022/12/24 07:52:05;;;;;;;17.10;6.45;;;;;;;5.12;100.00;93858.03;4990166;28;20613;-63
2022/12/24 07:54:32;;;;;;;15.48;6.25;;;;;;;5.10;100.00;93862.31;4989006;28;20062;-63
2022/12/24 07:56:59;;;;;;;16.60;7.72;;;;;;;5.15;100.00;93864.63;4990668;28;20042;-63
2022/12/24 07:59:25;;;;;;;14.43;8.17;;;;;;;5.20;100.00;93870.50;4993330;28;20064;-63
2022/12/24 08:01:52;;;;;;;15.65;6.88;;;;;;;5.13;100.00;93881.38;4992183;28;20563;-63
2022/12/24 08:04:19;;;;;;;14.50;7.78;;;;;;;5.14;100.00;93888.34;4993307;28;20046;-63
2022/12/24 08:06:46;;;;;;;17.70;7.35;;;;;;;5.20;100.00;93889.53;4992913;28;20089;-64
2022/12/24 08:09:14;;;;;;;15.80;7.53;;;;;;;5.22;100.00;93893.84;4993023;28;20510;-64
2022/12/24 08:11:41;;;;;;;13.57;7.90;;;;;;;5.12;100.00;93893.38;4992798;28;20432;-65
2022/12/24 08:14:17;;;;;;;12.93;6.57;;;;;;;5.34;100.00;93901.66;4993617;28;20054;-63
2022/12/24 08:16:44;;;;;;;15.93;7.47;;;;;;;5.42;100.00;93905.97;4991943;28;20045;-63
2022/12/24 08:19:11;;;;;;;16.17;7.10;;;;;;;5.35;100.00;93917.63;4993058;28;20406;-63
2022/12/24 08:21:37;;;;;;;15.35;6.40;;;;;;;5.37;100.00;93914.50;4992488;28;20045;-64
2022/12/24 08:24:05;;;;;;;17.43;6.73;;;;;;;5.51;100.00;93921.94;4993175;28;20449;-64
2022/12/24 08:26:31;;;;;;;14.43;4.43;;;;;;;5.60;100.00;93919.66;4992068;28;20042;-63
2022/12/24 08:28:58;;;;;;;7.68;4.38;;;;;;;5.70;100.00;93921.63;4992875;28;20402;-63
2022/12/24 08:31:25;;;;;;;12.25;4.97;;;;;;;5.75;100.00;93926.69;4992425;28;20042;-64
2022/12/24 08:33:51;;;;;;;12.13;5.68;;;;;;;5.65;100.00;93923.94;4992527;28;20057;-63
2022/12/24 08:36:18;;;;;;;10.10;5.07;;;;;;;5.82;100.00;93930.63;4992882;28;20044;-64
2022/12/24 08:38:45;;;;;;;13.60;4.82;;;;;;;5.94;100.00;93938.44;4992210;28;20054;-64
2022/12/24 08:41:11;;;;;;;13.55;4.35;;;;;;;6.03;100.00;93938.09;4992611;28;20042;-63
2022/12/24 08:43:38;;;;;;;10.00;4.50;;;;;;;6.00;100.00;93942.38;4992182;28;20399;-64
2022/12/24 08:46:05;;;;;;;16.33;5.72;;;;;;;5.89;100.00;93938.78;4992441;28;20568;-63
2022/12/24 08:48:33;;;;;;;14.90;7.43;;;;;;;5.83;100.00;93935.66;4991681;28;20045;-63
2022/12/24 08:50:59;;;;;;;16.77;7.70;;;;;;;5.62;100.00;93950.00;4992707;28;20053;-63
2022/12/24 08:53:26;;;;;;;21.90;10.70;;;;;;;5.51;100.00;93962.78;4992125;28;20380;-63
2022/12/24 08:56:00;;;;;;;21.90;9.60;;;;;;;5.84;100.00;93952.81;4991887;28;20053;-64
2022/12/24 08:58:28;;;;;;;26.27;12.63;;;;;;;5.70;100.00;93948.84;4991429;28;20050;-62
2022/12/24 09:00:55;;;;;;;22.00;10.33;;;;;;;5.75;100.00;93940.31;4991859;28;20057;-62
2022/12/24 09:03:22;;;;;;;22.50;11.50;;;;;;;5.89;100.00;93942.28;4991591;28;20038;-62
2022/12/24 09:05:53;;;;;;;19.27;10.15;;;;;;;6.10;100.00;93938.88;4991365;28;20673;-63
2022/12/24 09:08:20;;;;;;;17.20;8.32;;;;;;;5.94;100.00;93936.47;4991133;28;20038;-62
2022/12/24 09:10:47;;;;;;;21.33;8.65;;;;;;;6.14;100.00;93933.44;4992176;28;20050;-62
2022/12/24 09:13:14;;;;;;;19.47;9.00;;;;;;;6.29;100.00;93931.53;4992598;28;20388;-62
2022/12/24 09:15:40;;;;;;;22.52;9.73;;;;;;;6.29;100.00;93936.97;4991370;28;20736;-62
2022/12/24 09:18:07;;;;;;;20.20;9.18;;;;;;;6.41;100.00;93936.59;4991767;28;20410;-63
2022/12/24 09:20:34;;;;;;;16.92;7.68;;;;;;;6.56;100.00;93951.81;4991145;28;20519;-63
2022/12/24 09:23:00;;;;;;;16.20;8.15;;;;;;;6.40;100.00;93957.63;4991950;28;20051;-62
2022/12/24 09:25:27;;;;;;;13.97;7.20;;;;;;;6.63;100.00;93963.88;4990861;28;20143;-63
2022/12/24 09:27:54;;;;;;;13.80;6.80;;;;;;;6.54;100.00;93969.69;4990965;28;20038;-63
2022/12/24 09:30:20;;;;;;;13.80;6.50;;;;;;;6.52;100.00;93969.31;4991317;28;20055;-63
2022/12/24 09:32:50;;;;;;;15.43;6.22;;;;;;;6.70;100.00;93974.78;4990214;28;20057;-60
2022/12/24 09:35:17;;;;;;;21.60;10.02;;;;;;;6.57;100.00;93966.19;4988686;28;20433;-63
2022/12/24 09:37:43;;;;;;;20.97;9.50;;;;;;;6.43;100.00;93963.47;4990066;28;20080;-64
2022/12/24 09:40:23;;;;;;;20.00;7.95;;;;;;;6.67;100.00;93968.16;4991756;28;20055;-64
2022/12/24 09:42:53;;;;;;;30.70;12.75;;;;;;;6.95;100.00;93983.75;4990801;28;20104;-64
2022/12/24 09:45:40;;;;;;;28.10;11.82;;;;;;;7.11;100.00;93985.31;4991296;28;20068;-64
2022/12/24 09:48:22;;;;;;;12.75;4.88;;;;;;;7.17;100.00;93970.09;4990764;28;20061;-64
2022/12/24 09:51:08;;;;;;;10.57;4.80;;;;;;;7.27;100.00;93968.50;4991129;28;20050;-64
2022/12/24 09:53:50;;;;;;;9.27;3.80;;;;;;;7.35;100.00;93965.38;4990562;28;20053;-64
2022/12/24 09:56:24;;;;;;;12.73;3.33;;;;;;;7.46;100.00;93954.41;4991562;28;20050;-64
2022/12/24 09:59:02;;;;;;;9.27;3.50;;;;;;;7.57;100.00;93960.63;4989884;28;20042;-64
2022/12/24 10:01:31;;;;;;;11.40;3.80;;;;;;;7.81;100.00;93966.41;4990690;28;20056;-64
2022/12/24 10:04:04;;;;;;;10.63;3.80;;;;;;;7.98;100.00;93975.69;4991375;28;20099;-64
2022/12/24 10:06:46;;;;;;;8.35;3.33;;;;;;;7.96;100.00;93980.78;4990653;28;20116;-64
2022/12/24 10:09:28;;;;;;;18.38;7.40;;;;;;;7.95;100.00;93980.00;4991453;28;20073;-64
2022/12/24 10:11:59;;;;;;;14.68;5.57;;;;;;;8.03;100.00;93990.88;4990548;28;20442;-63
2022/12/24 10:14:47;;;;;;;20.40;7.47;;;;;;;8.02;100.00;93987.38;4990853;28;20057;-63
2022/12/24 10:17:30;;;;;;;11.43;4.87;;;;;;;7.92;100.00;93996.41;4990439;28;20535;-64
2022/12/24 10:20:21;;;;;;;12.98;4.55;;;;;;;7.93;100.00;93993.28;4989436;28;20144;-64
2022/12/24 10:22:52;;;;;;;17.13;5.20;;;;;;;8.05;100.00;93994.00;4990234;28;20050;-64
2022/12/24 10:25:26;;;;;;;13.23;4.82;;;;;;;7.96;100.00;93995.22;4991006;28;20395;-64
2022/12/24 10:27:55;;;;;;;13.48;4.32;;;;;;;8.06;100.00;93988.16;4990030;28;20697;-64
2022/12/24 10:30:22;;;;;;;13.37;3.67;;;;;;;8.04;100.00;93984.25;4991125;28;20096;-64
2022/12/24 10:32:51;;;;;;;11.50;3.30;;;;;;;8.11;100.00;93974.06;4990280;28;20046;-64
2022/12/24 10:35:24;;;;;;;9.43;3.40;;;;;;;7.96;100.00;93970.63;4991070;28;20057;-64
2022/12/24 10:37:52;;;;;;;8.93;3.03;;;;;;;8.04;100.00;93971.38;4990414;28;20050;-64
2022/12/24 10:40:28;;;;;;;9.75;3.30;;;;;;;8.13;100.00;93979.94;4990850;28;20077;-64
2022/12/24 10:42:55;;;;;;;7.90;2.87;;;;;;;7.94;100.00;93972.19;4989912;28;20823;-64
2022/12/24 10:45:24;;;;;;;8.05;2.80;;;;;;;7.86;100.00;93952.31;4990603;28;20049;-64
2022/12/24 10:48:00;;;;;;;7.82;2.63;;;;;;;7.99;100.00;93967.09;5005150;28;20049;-63
2022/12/24 10:50:41;;;;;;;9.68;2.85;;;;;;;8.08;100.00;93966.66;4990625;28;20038;-63
2022/12/24 10:53:48;;;;;;;9.15;2.60;;;;;;;8.29;100.00;93975.91;4989826;28;21575;-64
2022/12/24 10:56:17;;;;;;;7.90;2.10;;;;;;;8.33;100.00;93969.28;4987133;28;20112;-64
2022/12/24 10:58:49;;;;;;;8.43;2.30;;;;;;;8.76;100.00;93962.75;4989576;28;20046;-64
2022/12/24 11:01:16;;;;;;;8.50;2.42;;;;;;;9.13;98.49;93980.44;4990695;28;20046;-64
2022/12/24 11:03:43;;;;;;;6.80;2.30;;;;;;;9.05;98.71;93982.47;4989495;28;20061;-64
2022/12/24 11:06:20;;;;;;;7.50;2.22;;;;;;;9.44;96.39;93986.00;4990685;28;20054;-64
2022/12/24 11:08:47;;;;;;;5.27;2.07;;;;;;;9.77;93.85;93974.31;5004970;28;20443;-64
2022/12/24 11:11:16;;;;;;;9.57;2.58;;;;;;;9.64;94.99;93988.94;4990407;28;20074;-64
2022/12/24 11:13:51;;;;;;;10.10;2.60;;;;;;;9.20;96.21;93994.09;4989483;28;20077;-64
2022/12/24 11:16:20;;;;;;;8.50;2.70;;;;;;;8.93;100.00;93982.94;4990441;28;20057;-64
2022/12/24 11:18:52;;;;;;;6.22;2.40;;;;;;;8.73;100.00;93985.44;4989899;28;20043;-64
2022/12/24 11:21:22;;;;;;;7.07;2.53;;;;;;;8.68;100.00;93977.69;4990318;28;20389;-63
2022/12/24 11:23:52;;;;;;;7.97;2.20;;;;;;;8.52;100.00;93978.16;4989656;28;20048;-63
2022/12/24 11:26:28;;;;;;;7.97;2.20;;;;;;;8.29;100.00;93976.72;4990558;28;20046;-64
2022/12/24 11:29:22;;;;;;;6.25;2.10;;;;;;;8.20;100.00;93984.56;4989717;28;21573;-63
2022/12/24 11:31:51;;;;;;;8.90;2.55;;;;;;;8.18;100.00;93976.00;4989944;28;20325;-63
2022/12/24 11:34:21;;;;;;;4.10;2.10;;;;;;;8.06;100.00;93981.91;4994458;28;20054;-64
2022/12/24 11:36:50;;;;;;;6.68;2.28;;;;;;;8.13;100.00;93982.66;4993610;28;20054;-63
2022/12/24 11:39:21;;;;;;;6.00;2.42;;;;;;;8.27;100.00;93970.88;4994149;28;20152;-64
2022/12/24 11:41:52;;;;;;;5.72;2.13;;;;;;;8.26;100.00;93965.78;4993531;28;20438;-63
2022/12/24 11:44:26;;;;;;;8.68;2.58;;;;;;;8.36;100.00;93960.25;4994184;28;20449;-64
2022/12/24 11:46:57;;;;;;;5.60;2.47;;;;;;;8.62;100.00;93968.34;4992822;28;21784;-63